sensor_id;sensor_type;location;lat;lon;timestamp;P1;durP1;ratioP1;P2;durP2;ratioP2
26774;SDS011;14362;51.902;7.626;2023-04-25T00:02:08;14.27;;;5.93;;
26774;SDS011;14362;51.902;7.626;2023-04-25T00:06:09;11.75;;;6.03;;
26774;SDS011;14362;51.902;7.626;2023-04-25T00:10:11;10.43;;;5.00;;
26774;SDS011;14362;51.902;7.626;2023-04-25T00:14:13;10.82;;;4.68;;
26774;SDS011;14362;51.902;7.626;2023-04-25T00:18:15;9.02;;;5.10;;
26774;SDS011;14362;51.902;7.626;2023-04-25T00:22:17;17.25;;;5.63;;
26774;SDS011;14362;51.902;7.626;2023-04-25T00:26:19;11.38;;;5.13;;
26774;SDS011;14362;51.902;7.626;2023-04-25T00:30:21;14.27;;;5.57;;
26774;SDS011;14362;51.902;7.626;2023-04-25T00:34:24;14.40;;;5.88;;
26774;SDS011;14362;51.902;7.626;2023-04-25T00:38:25;12.00;;;5.72;;
26774;SDS011;14362;51.902;7.626;2023-04-25T00:42:27;12.50;;;5.03;;
26774;SDS011;14362;51.902;7.626;2023-04-25T00:46:29;14.90;;;5.32;;
26774;SDS011;14362;51.902;7.626;2023-04-25T00:50:33;11.35;;;4.88;;
26774;SDS011;14362;51.902;7.626;2023-04-25T00:54:36;10.67;;;4.87;;
26774;SDS011;14362;51.902;7.626;2023-04-25T00:58:38;15.85;;;5.88;;
26774;SDS011;14362;51.902;7.626;2023-04-25T01:02:41;11.00;;;5.45;;
26774;SDS011;14362;51.902;7.626;2023-04-25T01:06:44;12.52;;;5.65;;
26774;SDS011;14362;51.902;7.626;2023-04-25T01:10:46;10.20;;;6.90;;
26774;SDS011;14362;51.902;7.626;2023-04-25T01:14:47;10.65;;;5.13;;
26774;SDS011;14362;51.902;7.626;2023-04-25T01:18:49;15.43;;;6.43;;
26774;SDS011;14362;51.902;7.626;2023-04-25T01:22:52;14.88;;;6.55;;
26774;SDS011;14362;51.902;7.626;2023-04-25T01:26:55;9.52;;;5.90;;
26774;SDS011;14362;51.902;7.626;2023-04-25T01:30:56;13.55;;;6.00;;
26774;SDS011;14362;51.902;7.626;2023-04-25T01:34:58;11.48;;;4.93;;
26774;SDS011;14362;51.902;7.626;2023-04-25T01:39:01;11.10;;;5.45;;
26774;SDS011;14362;51.902;7.626;2023-04-25T01:43:03;10.82;;;5.50;;
26774;SDS011;14362;51.902;7.626;2023-04-25T01:47:04;10.88;;;5.13;;
26774;SDS011;14362;51.902;7.626;2023-04-25T01:51:06;9.80;;;5.45;;
26774;SDS011;14362;51.902;7.626;2023-04-25T01:55:09;11.20;;;5.38;;
26774;SDS011;14362;51.902;7.626;2023-04-25T01:59:10;8.23;;;3.85;;
26774;SDS011;14362;51.902;7.626;2023-04-25T02:03:12;11.77;;;4.60;;
26774;SDS011;14362;51.902;7.626;2023-04-25T02:07:13;10.27;;;4.22;;
26774;SDS011;14362;51.902;7.626;2023-04-25T02:11:17;8.85;;;4.47;;
26774;SDS011;14362;51.902;7.626;2023-04-25T02:15:18;10.70;;;4.47;;
26774;SDS011;14362;51.902;7.626;2023-04-25T02:19:20;11.40;;;4.03;;
26774;SDS011;14362;51.902;7.626;2023-04-25T02:23:21;12.75;;;4.20;;
26774;SDS011;14362;51.902;7.626;2023-04-25T02:27:24;11.25;;;4.15;;
26774;SDS011;14362;51.902;7.626;2023-04-25T02:31:28;8.20;;;4.03;;
26774;SDS011;14362;51.902;7.626;2023-04-25T02:35:30;12.38;;;4.03;;
26774;SDS011;14362;51.902;7.626;2023-04-25T02:39:31;14.30;;;5.30;;
26774;SDS011;14362;51.902;7.626;2023-04-25T02:43:34;15.48;;;5.03;;
26774;SDS011;14362;51.902;7.626;2023-04-25T02:47:36;12.93;;;4.45;;
26774;SDS011;14362;51.902;7.626;2023-04-25T02:51:37;18.95;;;5.35;;
26774;SDS011;14362;51.902;7.626;2023-04-25T02:55:38;12.30;;;4.40;;
26774;SDS011;14362;51.902;7.626;2023-04-25T02:59:41;14.43;;;4.28;;
26774;SDS011;14362;51.902;7.626;2023-04-25T03:03:43;17.63;;;4.68;;
26774;SDS011;14362;51.902;7.626;2023-04-25T03:07:44;24.20;;;5.05;;
26774;SDS011;14362;51.902;7.626;2023-04-25T03:11:46;16.30;;;5.13;;
26774;SDS011;14362;51.902;7.626;2023-04-25T03:15:49;19.50;;;4.78;;
26774;SDS011;14362;51.902;7.626;2023-04-25T03:19:51;19.30;;;4.70;;
26774;SDS011;14362;51.902;7.626;2023-04-25T03:23:55;22.85;;;5.57;;
26774;SDS011;14362;51.902;7.626;2023-04-25T03:27:57;16.17;;;5.15;;
26774;SDS011;14362;51.902;7.626;2023-04-25T03:31:59;14.20;;;4.57;;
26774;SDS011;14362;51.902;7.626;2023-04-25T03:36:01;17.00;;;4.53;;
26774;SDS011;14362;51.902;7.626;2023-04-25T03:40:03;20.73;;;5.18;;
26774;SDS011;14362;51.902;7.626;2023-04-25T03:44:05;17.63;;;4.30;;
26774;SDS011;14362;51.902;7.626;2023-04-25T03:48:08;17.83;;;5.53;;
26774;SDS011;14362;51.902;7.626;2023-04-25T03:52:09;13.63;;;4.43;;
26774;SDS011;14362;51.902;7.626;2023-04-25T03:56:10;14.63;;;4.45;;
26774;SDS011;14362;51.902;7.626;2023-04-25T04:00:12;15.18;;;4.80;;
26774;SDS011;14362;51.902;7.626;2023-04-25T04:04:16;20.02;;;5.25;;
26774;SDS011;14362;51.902;7.626;2023-04-25T04:08:18;13.40;;;5.22;;
26774;SDS011;14362;51.902;7.626;2023-04-25T04:12:20;16.27;;;5.00;;
26774;SDS011;14362;51.902;7.626;2023-04-25T04:16:21;21.40;;;5.20;;
26774;SDS011;14362;51.902;7.626;2023-04-25T04:20:24;16.58;;;4.45;;
26774;SDS011;14362;51.902;7.626;2023-04-25T04:24:25;13.40;;;4.95;;
26774;SDS011;14362;51.902;7.626;2023-04-25T04:28:27;16.08;;;4.35;;
26774;SDS011;14362;51.902;7.626;2023-04-25T04:32:28;20.23;;;5.57;;
26774;SDS011;14362;51.902;7.626;2023-04-25T04:36:31;15.35;;;4.45;;
26774;SDS011;14362;51.902;7.626;2023-04-25T04:40:33;13.75;;;5.78;;
26774;SDS011;14362;51.902;7.626;2023-04-25T04:44:34;17.30;;;4.95;;
26774;SDS011;14362;51.902;7.626;2023-04-25T04:48:36;19.25;;;4.80;;
26774;SDS011;14362;51.902;7.626;2023-04-25T04:52:41;28.50;;;6.32;;
26774;SDS011;14362;51.902;7.626;2023-04-25T04:56:43;19.83;;;5.30;;
26774;SDS011;14362;51.902;7.626;2023-04-25T05:00:44;24.02;;;6.47;;
26774;SDS011;14362;51.902;7.626;2023-04-25T05:04:46;17.80;;;4.95;;
26774;SDS011;14362;51.902;7.626;2023-04-25T05:08:49;18.27;;;6.07;;
26774;SDS011;14362;51.902;7.626;2023-04-25T05:12:50;19.42;;;4.47;;
26774;SDS011;14362;51.902;7.626;2023-04-25T05:16:52;18.75;;;4.82;;
26774;SDS011;14362;51.902;7.626;2023-04-25T05:20:53;13.55;;;4.97;;
26774;SDS011;14362;51.902;7.626;2023-04-25T05:24:56;28.67;;;5.55;;
26774;SDS011;14362;51.902;7.626;2023-04-25T05:28:57;16.45;;;5.00;;
26774;SDS011;14362;51.902;7.626;2023-04-25T05:33:02;15.13;;;4.55;;
26774;SDS011;14362;51.902;7.626;2023-04-25T05:37:04;13.70;;;4.95;;
26774;SDS011;14362;51.902;7.626;2023-04-25T05:41:07;21.52;;;5.85;;
26774;SDS011;14362;51.902;7.626;2023-04-25T05:45:09;10.52;;;4.20;;
26774;SDS011;14362;51.902;7.626;2023-04-25T05:49:10;20.42;;;5.13;;
26774;SDS011;14362;51.902;7.626;2023-04-25T05:53:12;12.45;;;4.75;;
26774;SDS011;14362;51.902;7.626;2023-04-25T05:57:24;13.57;;;4.40;;
26774;SDS011;14362;51.902;7.626;2023-04-25T06:01:26;18.38;;;4.72;;
26774;SDS011;14362;51.902;7.626;2023-04-25T06:05:28;14.40;;;4.22;;
26774;SDS011;14362;51.902;7.626;2023-04-25T06:09:29;18.35;;;4.00;;
26774;SDS011;14362;51.902;7.626;2023-04-25T06:13:32;15.93;;;4.18;;
26774;SDS011;14362;51.902;7.626;2023-04-25T06:17:34;12.48;;;3.83;;
26774;SDS011;14362;51.902;7.626;2023-04-25T06:21:35;12.13;;;3.67;;
26774;SDS011;14362;51.902;7.626;2023-04-25T06:25:36;14.23;;;4.15;;
26774;SDS011;14362;51.902;7.626;2023-04-25T06:29:39;11.07;;;4.80;;
26774;SDS011;14362;51.902;7.626;2023-04-25T06:33:41;13.50;;;4.00;;
26774;SDS011;14362;51.902;7.626;2023-04-25T06:37:42;20.90;;;3.28;;
26774;SDS011;14362;51.902;7.626;2023-04-25T06:41:43;15.40;;;3.63;;
26774;SDS011;14362;51.902;7.626;2023-04-25T06:45:47;13.05;;;3.58;;
26774;SDS011;14362;51.902;7.626;2023-04-25T06:49:49;9.82;;;2.80;;
26774;SDS011;14362;51.902;7.626;2023-04-25T06:53:50;8.77;;;2.80;;
26774;SDS011;14362;51.902;7.626;2023-04-25T06:57:52;14.73;;;3.47;;
26774;SDS011;14362;51.902;7.626;2023-04-25T07:01:54;12.27;;;3.28;;
26774;SDS011;14362;51.902;7.626;2023-04-25T07:05:56;15.02;;;3.00;;
26774;SDS011;14362;51.902;7.626;2023-04-25T07:09:57;14.32;;;2.65;;
26774;SDS011;14362;51.902;7.626;2023-04-25T07:13:59;11.10;;;2.92;;
26774;SDS011;14362;51.902;7.626;2023-04-25T07:18:02;10.82;;;3.17;;
26774;SDS011;14362;51.902;7.626;2023-04-25T07:22:03;10.50;;;3.70;;
26774;SDS011;14362;51.902;7.626;2023-04-25T07:26:05;11.80;;;2.80;;
26774;SDS011;14362;51.902;7.626;2023-04-25T07:30:07;12.10;;;3.00;;
26774;SDS011;14362;51.902;7.626;2023-04-25T07:34:10;14.18;;;3.35;;
26774;SDS011;14362;51.902;7.626;2023-04-25T07:38:12;10.00;;;3.05;;
26774;SDS011;14362;51.902;7.626;2023-04-25T07:42:13;8.95;;;2.67;;
26774;SDS011;14362;51.902;7.626;2023-04-25T07:46:15;10.10;;;3.05;;
26774;SDS011;14362;51.902;7.626;2023-04-25T07:50:18;9.57;;;2.65;;
26774;SDS011;14362;51.902;7.626;2023-04-25T07:54:19;10.88;;;2.25;;
26774;SDS011;14362;51.902;7.626;2023-04-25T07:58:21;10.43;;;2.75;;
26774;SDS011;14362;51.902;7.626;2023-04-25T08:02:22;15.02;;;2.88;;
26774;SDS011;14362;51.902;7.626;2023-04-25T08:06:27;8.10;;;2.50;;
26774;SDS011;14362;51.902;7.626;2023-04-25T08:10:28;12.32;;;3.58;;
26774;SDS011;14362;51.902;7.626;2023-04-25T08:14:30;10.63;;;2.65;;
26774;SDS011;14362;51.902;7.626;2023-04-25T08:18:35;9.57;;;2.50;;
26774;SDS011;14362;51.902;7.626;2023-04-25T08:22:38;11.60;;;2.28;;
26774;SDS011;14362;51.902;7.626;2023-04-25T08:26:39;10.45;;;3.08;;
26774;SDS011;14362;51.902;7.626;2023-04-25T08:30:41;7.68;;;2.17;;
26774;SDS011;14362;51.902;7.626;2023-04-25T08:34:42;8.20;;;2.28;;
26774;SDS011;14362;51.902;7.626;2023-04-25T08:38:45;7.85;;;2.47;;
26774;SDS011;14362;51.902;7.626;2023-04-25T08:42:46;13.07;;;2.90;;
26774;SDS011;14362;51.902;7.626;2023-04-25T08:46:49;11.05;;;2.13;;
26774;SDS011;14362;51.902;7.626;2023-04-25T08:50:53;9.25;;;2.42;;
26774;SDS011;14362;51.902;7.626;2023-04-25T08:54:57;7.85;;;2.10;;
26774;SDS011;14362;51.902;7.626;2023-04-25T08:58:59;8.18;;;2.17;;
26774;SDS011;14362;51.902;7.626;2023-04-25T09:03:01;13.57;;;2.25;;
26774;SDS011;14362;51.902;7.626;2023-04-25T09:07:05;6.60;;;2.05;;
26774;SDS011;14362;51.902;7.626;2023-04-25T09:11:07;6.33;;;2.40;;
26774;SDS011;14362;51.902;7.626;2023-04-25T09:15:09;5.32;;;1.92;;
26774;SDS011;14362;51.902;7.626;2023-04-25T09:19:19;11.48;;;2.35;;
26774;SDS011;14362;51.902;7.626;2023-04-25T09:23:23;14.07;;;1.75;;
26774;SDS011;14362;51.902;7.626;2023-04-25T09:27:26;7.60;;;2.33;;
26774;SDS011;14362;51.902;7.626;2023-04-25T09:31:27;3.25;;;1.60;;
26774;SDS011;14362;51.902;7.626;2023-04-25T09:35:29;3.72;;;1.27;;
26774;SDS011;14362;51.902;7.626;2023-04-25T09:39:30;11.80;;;3.15;;
26774;SDS011;14362;51.902;7.626;2023-04-25T09:43:35;7.20;;;1.80;;
26774;SDS011;14362;51.902;7.626;2023-04-25T09:47:37;8.63;;;3.10;;
26774;SDS011;14362;51.902;7.626;2023-04-25T09:51:38;6.97;;;2.20;;
26774;SDS011;14362;51.902;7.626;2023-04-25T09:55:40;5.68;;;1.83;;
26774;SDS011;14362;51.902;7.626;2023-04-25T09:59:45;8.15;;;1.98;;
26774;SDS011;14362;51.902;7.626;2023-04-25T10:03:47;16.30;;;1.95;;
26774;SDS011;14362;51.902;7.626;2023-04-25T10:07:51;7.53;;;2.13;;
26774;SDS011;14362;51.902;7.626;2023-04-25T10:11:53;6.20;;;1.77;;
26774;SDS011;14362;51.902;7.626;2023-04-25T10:15:57;8.48;;;1.73;;
26774;SDS011;14362;51.902;7.626;2023-04-25T10:24:03;8.13;;;1.98;;
26774;SDS011;14362;51.902;7.626;2023-04-25T10:28:05;5.13;;;1.60;;
26774;SDS011;14362;51.902;7.626;2023-04-25T10:32:08;3.78;;;1.30;;
26774;SDS011;14362;51.902;7.626;2023-04-25T10:36:10;4.35;;;1.48;;
26774;SDS011;14362;51.902;7.626;2023-04-25T10:40:13;6.78;;;1.73;;
26774;SDS011;14362;51.902;7.626;2023-04-25T10:44:22;5.53;;;1.85;;
26774;SDS011;14362;51.902;7.626;2023-04-25T10:48:28;10.32;;;2.85;;
26774;SDS011;14362;51.902;7.626;2023-04-25T10:52:32;5.63;;;1.50;;
26774;SDS011;14362;51.902;7.626;2023-04-25T10:56:36;5.43;;;2.00;;
26774;SDS011;14362;51.902;7.626;2023-04-25T11:00:39;7.53;;;2.22;;
26774;SDS011;14362;51.902;7.626;2023-04-25T11:04:43;4.20;;;1.92;;
26774;SDS011;14362;51.902;7.626;2023-04-25T11:08:47;8.20;;;2.20;;
26774;SDS011;14362;51.902;7.626;2023-04-25T11:12:50;5.72;;;1.65;;
26774;SDS011;14362;51.902;7.626;2023-04-25T11:16:52;7.78;;;1.83;;
26774;SDS011;14362;51.902;7.626;2023-04-25T11:20:55;8.20;;;2.17;;
26774;SDS011;14362;51.902;7.626;2023-04-25T11:24:56;6.47;;;1.50;;
26774;SDS011;14362;51.902;7.626;2023-04-25T11:28:58;5.82;;;1.52;;
26774;SDS011;14362;51.902;7.626;2023-04-25T11:33:00;8.18;;;1.88;;
26774;SDS011;14362;51.902;7.626;2023-04-25T11:37:05;10.85;;;2.03;;
26774;SDS011;14362;51.902;7.626;2023-04-25T11:41:07;6.95;;;2.03;;
26774;SDS011;14362;51.902;7.626;2023-04-25T11:45:08;5.00;;;1.52;;
26774;SDS011;14362;51.902;7.626;2023-04-25T11:49:10;5.63;;;1.50;;
26774;SDS011;14362;51.902;7.626;2023-04-25T11:53:13;7.95;;;1.90;;
26774;SDS011;14362;51.902;7.626;2023-04-25T11:57:15;5.78;;;1.70;;
26774;SDS011;14362;51.902;7.626;2023-04-25T12:01:24;5.82;;;1.48;;
26774;SDS011;14362;51.902;7.626;2023-04-25T12:05:28;2.13;;;1.23;;
26774;SDS011;14362;51.902;7.626;2023-04-25T12:09:34;4.10;;;1.95;;
26774;SDS011;14362;51.902;7.626;2023-04-25T12:13:35;5.20;;;1.20;;
26774;SDS011;14362;51.902;7.626;2023-04-25T12:17:37;4.35;;;1.02;;
26774;SDS011;14362;51.902;7.626;2023-04-25T12:21:39;3.75;;;1.35;;
26774;SDS011;14362;51.902;7.626;2023-04-25T12:25:42;2.30;;;1.00;;
26774;SDS011;14362;51.902;7.626;2023-04-25T12:29:50;5.28;;;1.73;;
26774;SDS011;14362;51.902;7.626;2023-04-25T12:33:53;3.50;;;1.00;;
26774;SDS011;14362;51.902;7.626;2023-04-25T12:37:54;3.40;;;1.02;;
26774;SDS011;14362;51.902;7.626;2023-04-25T12:41:57;4.47;;;1.40;;
26774;SDS011;14362;51.902;7.626;2023-04-25T12:45:59;3.50;;;1.42;;
26774;SDS011;14362;51.902;7.626;2023-04-25T12:50:01;3.80;;;1.02;;
26774;SDS011;14362;51.902;7.626;2023-04-25T12:54:03;4.65;;;1.80;;
26774;SDS011;14362;51.902;7.626;2023-04-25T12:58:07;2.55;;;1.10;;
26774;SDS011;14362;51.902;7.626;2023-04-25T13:02:08;2.88;;;1.45;;
26774;SDS011;14362;51.902;7.626;2023-04-25T13:06:11;3.35;;;1.23;;
26774;SDS011;14362;51.902;7.626;2023-04-25T13:10:12;3.63;;;1.10;;
26774;SDS011;14362;51.902;7.626;2023-04-25T13:14:15;5.50;;;1.60;;
26774;SDS011;14362;51.902;7.626;2023-04-25T13:18:16;6.80;;;2.03;;
26774;SDS011;14362;51.902;7.626;2023-04-25T13:22:18;3.83;;;1.50;;
26774;SDS011;14362;51.902;7.626;2023-04-25T13:26:20;6.00;;;1.67;;
26774;SDS011;14362;51.902;7.626;2023-04-25T13:30:23;4.10;;;1.50;;
26774;SDS011;14362;51.902;7.626;2023-04-25T13:34:24;7.10;;;2.00;;
26774;SDS011;14362;51.902;7.626;2023-04-25T13:38:25;2.92;;;1.60;;
26774;SDS011;14362;51.902;7.626;2023-04-25T13:42:27;5.07;;;1.63;;
26774;SDS011;14362;51.902;7.626;2023-04-25T13:46:29;5.22;;;1.42;;
26774;SDS011;14362;51.902;7.626;2023-04-25T13:50:31;8.35;;;1.70;;
26774;SDS011;14362;51.902;7.626;2023-04-25T13:54:32;3.42;;;1.40;;
26774;SDS011;14362;51.902;7.626;2023-04-25T13:58:34;8.43;;;2.35;;
26774;SDS011;14362;51.902;7.626;2023-04-25T14:02:37;4.03;;;1.50;;
26774;SDS011;14362;51.902;7.626;2023-04-25T14:06:39;6.22;;;1.80;;
26774;SDS011;14362;51.902;7.626;2023-04-25T14:10:41;3.63;;;1.55;;
26774;SDS011;14362;51.902;7.626;2023-04-25T14:14:42;4.40;;;1.55;;
26774;SDS011;14362;51.902;7.626;2023-04-25T14:18:45;7.07;;;1.77;;
26774;SDS011;14362;51.902;7.626;2023-04-25T14:22:46;5.40;;;2.00;;
26774;SDS011;14362;51.902;7.626;2023-04-25T14:26:48;3.85;;;1.42;;
26774;SDS011;14362;51.902;7.626;2023-04-25T14:30:49;6.50;;;1.67;;
26774;SDS011;14362;51.902;7.626;2023-04-25T14:34:52;3.90;;;1.27;;
26774;SDS011;14362;51.902;7.626;2023-04-25T14:38:54;2.17;;;1.27;;
26774;SDS011;14362;51.902;7.626;2023-04-25T14:42:56;3.53;;;1.10;;
26774;SDS011;14362;51.902;7.626;2023-04-25T14:46:57;5.70;;;1.50;;
26774;SDS011;14362;51.902;7.626;2023-04-25T14:51:00;3.92;;;1.65;;
26774;SDS011;14362;51.902;7.626;2023-04-25T14:55:02;4.38;;;1.73;;
26774;SDS011;14362;51.902;7.626;2023-04-25T14:59:05;3.60;;;1.75;;
26774;SDS011;14362;51.902;7.626;2023-04-25T15:03:06;5.88;;;2.35;;
26774;SDS011;14362;51.902;7.626;2023-04-25T15:07:10;5.55;;;1.60;;
26774;SDS011;14362;51.902;7.626;2023-04-25T15:11:12;3.20;;;1.52;;
26774;SDS011;14362;51.902;7.626;2023-04-25T15:15:13;4.38;;;2.40;;
26774;SDS011;14362;51.902;7.626;2023-04-25T15:19:15;4.72;;;1.60;;
26774;SDS011;14362;51.902;7.626;2023-04-25T15:23:18;3.65;;;1.50;;
26774;SDS011;14362;51.902;7.626;2023-04-25T15:27:21;3.03;;;1.08;;
26774;SDS011;14362;51.902;7.626;2023-04-25T15:31:23;5.50;;;1.20;;
26774;SDS011;14362;51.902;7.626;2023-04-25T15:35:24;4.00;;;1.75;;
26774;SDS011;14362;51.902;7.626;2023-04-25T15:39:27;4.72;;;1.63;;
26774;SDS011;14362;51.902;7.626;2023-04-25T15:43:28;5.70;;;1.30;;
26774;SDS011;14362;51.902;7.626;2023-04-25T15:47:30;3.45;;;1.67;;
26774;SDS011;14362;51.902;7.626;2023-04-25T15:51:31;2.63;;;1.20;;
26774;SDS011;14362;51.902;7.626;2023-04-25T15:55:35;3.22;;;1.08;;
26774;SDS011;14362;51.902;7.626;2023-04-25T15:59:36;4.40;;;1.02;;
26774;SDS011;14362;51.902;7.626;2023-04-25T16:03:37;3.92;;;1.27;;
26774;SDS011;14362;51.902;7.626;2023-04-25T16:07:39;3.15;;;1.10;;
26774;SDS011;14362;51.902;7.626;2023-04-25T16:11:43;2.28;;;1.30;;
26774;SDS011;14362;51.902;7.626;2023-04-25T16:15:45;3.92;;;1.08;;
26774;SDS011;14362;51.902;7.626;2023-04-25T16:19:46;5.03;;;1.40;;
26774;SDS011;14362;51.902;7.626;2023-04-25T16:23:49;3.72;;;1.40;;
26774;SDS011;14362;51.902;7.626;2023-04-25T16:27:52;3.90;;;1.58;;
26774;SDS011;14362;51.902;7.626;2023-04-25T16:31:53;4.95;;;2.35;;
26774;SDS011;14362;51.902;7.626;2023-04-25T16:35:55;2.35;;;1.20;;
26774;SDS011;14362;51.902;7.626;2023-04-25T16:39:56;4.57;;;1.25;;
26774;SDS011;14362;51.902;7.626;2023-04-25T16:43:59;3.78;;;1.48;;
26774;SDS011;14362;51.902;7.626;2023-04-25T16:48:00;4.95;;;2.00;;
26774;SDS011;14362;51.902;7.626;2023-04-25T16:52:01;3.78;;;1.40;;
26774;SDS011;14362;51.902;7.626;2023-04-25T16:56:03;8.57;;;1.73;;
26774;SDS011;14362;51.902;7.626;2023-04-25T17:00:08;3.30;;;1.48;;
26774;SDS011;14362;51.902;7.626;2023-04-25T17:04:12;3.45;;;1.30;;
26774;SDS011;14362;51.902;7.626;2023-04-25T17:08:13;4.93;;;1.30;;
26774;SDS011;14362;51.902;7.626;2023-04-25T17:12:15;5.28;;;1.20;;
26774;SDS011;14362;51.902;7.626;2023-04-25T17:16:18;5.10;;;1.38;;
26774;SDS011;14362;51.902;7.626;2023-04-25T17:20:21;5.63;;;1.33;;
26774;SDS011;14362;51.902;7.626;2023-04-25T17:24:23;5.45;;;1.27;;
26774;SDS011;14362;51.902;7.626;2023-04-25T17:28:24;4.32;;;1.27;;
26774;SDS011;14362;51.902;7.626;2023-04-25T17:32:27;2.63;;;1.10;;
26774;SDS011;14362;51.902;7.626;2023-04-25T17:36:28;2.65;;;1.30;;
26774;SDS011;14362;51.902;7.626;2023-04-25T17:40:30;5.13;;;1.83;;
26774;SDS011;14362;51.902;7.626;2023-04-25T17:44:31;3.97;;;1.30;;
26774;SDS011;14362;51.902;7.626;2023-04-25T17:48:34;4.18;;;1.50;;
26774;SDS011;14362;51.902;7.626;2023-04-25T17:52:35;2.90;;;1.48;;
26774;SDS011;14362;51.902;7.626;2023-04-25T17:56:37;6.30;;;1.85;;
26774;SDS011;14362;51.902;7.626;2023-04-25T18:00:39;6.97;;;1.95;;
26774;SDS011;14362;51.902;7.626;2023-04-25T18:04:42;5.70;;;1.48;;
26774;SDS011;14362;51.902;7.626;2023-04-25T18:08:43;4.03;;;1.20;;
26774;SDS011;14362;51.902;7.626;2023-04-25T18:12:45;2.70;;;1.00;;
26774;SDS011;14362;51.902;7.626;2023-04-25T18:16:46;3.20;;;1.23;;
26774;SDS011;14362;51.902;7.626;2023-04-25T18:20:50;2.03;;;0.90;;
26774;SDS011;14362;51.902;7.626;2023-04-25T18:24:52;11.07;;;2.28;;
26774;SDS011;14362;51.902;7.626;2023-04-25T18:28:53;4.53;;;1.23;;
26774;SDS011;14362;51.902;7.626;2023-04-25T18:32:54;4.05;;;1.95;;
26774;SDS011;14362;51.902;7.626;2023-04-25T18:36:58;5.53;;;1.58;;
26774;SDS011;14362;51.902;7.626;2023-04-25T18:41:00;5.90;;;1.42;;
26774;SDS011;14362;51.902;7.626;2023-04-25T18:45:01;4.18;;;1.48;;
26774;SDS011;14362;51.902;7.626;2023-04-25T18:49:04;9.35;;;1.83;;
26774;SDS011;14362;51.902;7.626;2023-04-25T18:53:07;5.85;;;1.48;;
26774;SDS011;14362;51.902;7.626;2023-04-25T18:57:08;7.80;;;2.15;;
26774;SDS011;14362;51.902;7.626;2023-04-25T19:01:13;10.50;;;1.95;;
26774;SDS011;14362;51.902;7.626;2023-04-25T19:05:14;4.78;;;1.77;;
26774;SDS011;14362;51.902;7.626;2023-04-25T19:09:17;7.50;;;2.13;;
26774;SDS011;14362;51.902;7.626;2023-04-25T19:13:19;8.85;;;1.73;;
26774;SDS011;14362;51.902;7.626;2023-04-25T19:17:20;3.47;;;1.20;;
26774;SDS011;14362;51.902;7.626;2023-04-25T19:21:22;8.68;;;1.52;;
26774;SDS011;14362;51.902;7.626;2023-04-25T19:25:25;5.03;;;1.67;;
26774;SDS011;14362;51.902;7.626;2023-04-25T19:29:26;4.68;;;1.52;;
26774;SDS011;14362;51.902;7.626;2023-04-25T19:33:29;7.55;;;1.90;;
26774;SDS011;14362;51.902;7.626;2023-04-25T19:37:30;6.47;;;1.98;;
26774;SDS011;14362;51.902;7.626;2023-04-25T19:41:33;3.55;;;1.98;;
26774;SDS011;14362;51.902;7.626;2023-04-25T19:45:36;7.30;;;2.43;;
26774;SDS011;14362;51.902;7.626;2023-04-25T19:49:37;7.68;;;1.63;;
26774;SDS011;14362;51.902;7.626;2023-04-25T19:53:38;9.07;;;1.90;;
26774;SDS011;14362;51.902;7.626;2023-04-25T19:57:41;5.28;;;1.70;;
26774;SDS011;14362;51.902;7.626;2023-04-25T20:01:43;7.78;;;2.05;;
26774;SDS011;14362;51.902;7.626;2023-04-25T20:05:44;6.25;;;2.15;;
26774;SDS011;14362;51.902;7.626;2023-04-25T20:09:45;5.68;;;1.70;;
26774;SDS011;14362;51.902;7.626;2023-04-25T20:13:48;5.80;;;1.73;;
26774;SDS011;14362;51.902;7.626;2023-04-25T20:17:50;5.82;;;1.92;;
26774;SDS011;14362;51.902;7.626;2023-04-25T20:21:51;4.30;;;1.95;;
26774;SDS011;14362;51.902;7.626;2023-04-25T20:25:52;6.97;;;1.92;;
26774;SDS011;14362;51.902;7.626;2023-04-25T20:29:56;6.65;;;1.80;;
26774;SDS011;14362;51.902;7.626;2023-04-25T20:33:57;7.18;;;1.98;;
26774;SDS011;14362;51.902;7.626;2023-04-25T20:37:59;3.78;;;1.65;;
26774;SDS011;14362;51.902;7.626;2023-04-25T20:42:01;7.22;;;2.08;;
26774;SDS011;14362;51.902;7.626;2023-04-25T20:46:04;5.50;;;2.20;;
26774;SDS011;14362;51.902;7.626;2023-04-25T20:50:06;6.72;;;2.08;;
26774;SDS011;14362;51.902;7.626;2023-04-25T20:54:09;9.90;;;2.42;;
26774;SDS011;14362;51.902;7.626;2023-04-25T20:58:12;7.35;;;2.03;;
26774;SDS011;14362;51.902;7.626;2023-04-25T21:02:15;5.40;;;2.13;;
26774;SDS011;14362;51.902;7.626;2023-04-25T21:06:16;8.32;;;2.65;;
26774;SDS011;14362;51.902;7.626;2023-04-25T21:10:18;6.13;;;2.90;;
26774;SDS011;14362;51.902;7.626;2023-04-25T21:14:19;5.22;;;2.05;;
26774;SDS011;14362;51.902;7.626;2023-04-25T21:18:23;6.30;;;2.42;;
26774;SDS011;14362;51.902;7.626;2023-04-25T21:22:24;7.25;;;2.38;;
26774;SDS011;14362;51.902;7.626;2023-04-25T21:26:26;5.32;;;2.50;;
26774;SDS011;14362;51.902;7.626;2023-04-25T21:30:27;5.75;;;2.13;;
26774;SDS011;14362;51.902;7.626;2023-04-25T21:34:30;3.45;;;2.00;;
26774;SDS011;14362;51.902;7.626;2023-04-25T21:38:31;8.68;;;2.20;;
26774;SDS011;14362;51.902;7.626;2023-04-25T21:42:33;6.13;;;2.05;;
26774;SDS011;14362;51.902;7.626;2023-04-25T21:46:34;9.55;;;2.35;;
26774;SDS011;14362;51.902;7.626;2023-04-25T21:50:37;5.35;;;2.30;;
26774;SDS011;14362;51.902;7.626;2023-04-25T21:54:39;3.92;;;2.38;;
26774;SDS011;14362;51.902;7.626;2023-04-25T21:58:40;6.70;;;2.38;;
26774;SDS011;14362;51.902;7.626;2023-04-25T22:02:42;10.50;;;2.95;;
26774;SDS011;14362;51.902;7.626;2023-04-25T22:06:44;4.93;;;2.63;;
26774;SDS011;14362;51.902;7.626;2023-04-25T22:10:46;9.27;;;3.00;;
26774;SDS011;14362;51.902;7.626;2023-04-25T22:14:48;3.92;;;2.20;;
26774;SDS011;14362;51.902;7.626;2023-04-25T22:18:49;10.70;;;2.47;;
26774;SDS011;14362;51.902;7.626;2023-04-25T22:22:53;7.22;;;2.78;;
26774;SDS011;14362;51.902;7.626;2023-04-25T22:26:55;9.93;;;2.60;;
26774;SDS011;14362;51.902;7.626;2023-04-25T22:30:56;11.52;;;3.22;;
26774;SDS011;14362;51.902;7.626;2023-04-25T22:34:58;8.63;;;2.78;;
26774;SDS011;14362;51.902;7.626;2023-04-25T22:39:00;9.90;;;3.15;;
26774;SDS011;14362;51.902;7.626;2023-04-25T22:43:02;7.40;;;2.85;;
26774;SDS011;14362;51.902;7.626;2023-04-25T22:47:04;7.63;;;2.65;;
26774;SDS011;14362;51.902;7.626;2023-04-25T22:51:05;9.82;;;2.70;;
26774;SDS011;14362;51.902;7.626;2023-04-25T22:55:08;7.20;;;3.55;;
26774;SDS011;14362;51.902;7.626;2023-04-25T22:59:11;12.77;;;2.63;;
26774;SDS011;14362;51.902;7.626;2023-04-25T23:03:12;4.97;;;2.70;;
26774;SDS011;14362;51.902;7.626;2023-04-25T23:07:13;4.63;;;2.70;;
26774;SDS011;14362;51.902;7.626;2023-04-25T23:11:16;13.77;;;4.18;;
26774;SDS011;14362;51.902;7.626;2023-04-25T23:15:19;6.45;;;2.85;;
26774;SDS011;14362;51.902;7.626;2023-04-25T23:19:20;11.20;;;4.05;;
26774;SDS011;14362;51.902;7.626;2023-04-25T23:23:22;8.95;;;2.58;;
26774;SDS011;14362;51.902;7.626;2023-04-25T23:27:25;5.97;;;2.80;;
26774;SDS011;14362;51.902;7.626;2023-04-25T23:31:26;6.20;;;3.17;;
26774;SDS011;14362;51.902;7.626;2023-04-25T23:35:28;13.02;;;3.67;;
26774;SDS011;14362;51.902;7.626;2023-04-25T23:39:29;7.93;;;2.95;;
26774;SDS011;14362;51.902;7.626;2023-04-25T23:43:32;7.00;;;3.50;;
26774;SDS011;14362;51.902;7.626;2023-04-25T23:47:34;9.27;;;3.33;;
26774;SDS011;14362;51.902;7.626;2023-04-25T23:51:36;8.98;;;3.08;;
26774;SDS011;14362;51.902;7.626;2023-04-25T23:55:37;5.70;;;3.20;;
26774;SDS011;14362;51.902;7.626;2023-04-25T23:59:41;13.07;;;3.33;;
